Terminal Aerodrome Forecast
Issued by NWS Lake Charles, LA

Home | Current Version | Previous Version | Text Only | Print | Product List | Glossary On
Versions: 1 2 3 4 5 6 7 8 9 10 11 12 13
000
FTUS44 KLCH 062322
TAFAEX
TAF
KAEX 062322Z 0700/0724 13008KT P6SM SCT040 SCT250
     FM070600 14005KT P6SM SCT015 SCT250
     FM071500 15008KT P6SM SCT030 SCT250
     FM071800 16010G15KT P6SM VCSH BKN050=

USA.gov is the U.S. government's official web portal to all federal, state and local government web resources and services.